createdAt,value
2022-12-18T00:01:35.294Z,14.52
2022-12-18T00:04:04.768Z,13.50
2022-12-18T00:06:33.693Z,14.75
2022-12-18T00:09:01.881Z,15.18
2022-12-18T00:11:31.155Z,12.25
2022-12-18T00:14:00.400Z,11.65
2022-12-18T00:16:29.348Z,12.52
2022-12-18T00:18:59.207Z,14.70
2022-12-18T00:21:28.270Z,13.43
2022-12-18T00:23:56.453Z,15.45
2022-12-18T00:26:25.880Z,12.35
2022-12-18T00:29:02.748Z,11.43
2022-12-18T00:31:32.616Z,12.88
2022-12-18T00:34:02.746Z,13.27
2022-12-18T00:36:32.872Z,11.88
2022-12-18T00:39:01.422Z,11.32
2022-12-18T00:41:48.285Z,11.77
2022-12-18T00:44:19.091Z,10.25
2022-12-18T00:46:47.631Z,10.02
2022-12-18T00:49:16.336Z,14.23
2022-12-18T00:51:44.195Z,12.02
2022-12-18T00:54:12.680Z,12.77
2022-12-18T00:56:48.221Z,15.27
2022-12-18T00:59:17.373Z,10.73
2022-12-18T01:01:45.914Z,14.35
2022-12-18T01:04:14.030Z,18.10
2022-12-18T01:06:41.938Z,11.70
2022-12-18T01:09:11.224Z,15.00
2022-12-18T01:11:42.549Z,13.73
2022-12-18T01:14:12.498Z,11.35
2022-12-18T01:16:40.464Z,20.27
2022-12-18T01:19:08.290Z,11.15
2022-12-18T01:21:36.104Z,12.30
2022-12-18T01:24:05.793Z,14.48
2022-12-18T01:26:33.750Z,11.35
2022-12-18T01:29:01.625Z,16.88
2022-12-18T01:31:31.546Z,12.43
2022-12-18T01:33:59.736Z,11.70
2022-12-18T01:36:30.875Z,12.40
2022-12-18T01:39:01.406Z,11.38
2022-12-18T01:41:50.860Z,12.77
2022-12-18T01:45:06.750Z,10.90
2022-12-18T01:47:46.290Z,13.70
2022-12-18T01:50:14.567Z,13.48
2022-12-18T01:52:49.657Z,15.05
2022-12-18T01:55:21.209Z,15.50
2022-12-18T01:57:50.621Z,14.50
2022-12-18T02:00:20.130Z,15.95
2022-12-18T02:02:48.592Z,12.93
2022-12-18T02:05:20.872Z,13.63
2022-12-18T02:07:48.846Z,16.20
2022-12-18T02:10:21.786Z,13.07
2022-12-18T02:12:59.138Z,14.20
2022-12-18T02:15:33.260Z,16.30
2022-12-18T02:18:17.382Z,19.20
2022-12-18T02:21:11.637Z,15.15
2022-12-18T02:24:03.152Z,20.40
2022-12-18T02:26:41.777Z,17.58
2022-12-18T02:29:14.278Z,14.60
2022-12-18T02:31:53.271Z,14.32
2022-12-18T02:34:25.936Z,18.60
2022-12-18T02:36:56.612Z,15.38
2022-12-18T02:39:26.270Z,15.40
2022-12-18T02:42:00.761Z,17.55
2022-12-18T02:44:28.744Z,17.05
2022-12-18T02:46:56.796Z,15.35
2022-12-18T02:49:30.838Z,13.65
2022-12-18T02:52:03.488Z,20.48
2022-12-18T02:54:54.206Z,17.65
2022-12-18T02:57:23.716Z,22.15
2022-12-18T02:59:57.860Z,17.92
2022-12-18T03:02:48.588Z,20.20
2022-12-18T03:05:36.727Z,16.15
2022-12-18T03:08:07.112Z,19.52
2022-12-18T03:10:44.195Z,18.73
2022-12-18T03:13:15.472Z,17.00
2022-12-18T03:15:48.919Z,16.45
2022-12-18T03:18:19.227Z,20.48
2022-12-18T03:20:48.867Z,21.58
2022-12-18T03:23:26.421Z,19.08
2022-12-18T03:25:59.299Z,16.92
2022-12-18T03:28:33.132Z,23.92
2022-12-18T03:31:07.658Z,16.13
2022-12-18T03:33:58.690Z,15.50
2022-12-18T03:36:34.010Z,16.90
2022-12-18T03:39:02.939Z,17.90
2022-12-18T03:42:04.108Z,17.48
2022-12-18T03:44:41.699Z,17.40
2022-12-18T03:47:21.396Z,18.77
2022-12-18T03:49:55.018Z,18.08
2022-12-18T03:52:23.733Z,22.15
2022-12-18T03:54:52.204Z,19.80
2022-12-18T03:57:22.762Z,22.77
2022-12-18T03:59:56.954Z,23.00
2022-12-18T04:02:30.991Z,19.23
2022-12-18T04:05:05.410Z,23.92
2022-12-18T04:07:36.464Z,22.65
2022-12-18T04:10:08.819Z,21.48
2022-12-18T04:12:38.864Z,24.13
2022-12-18T04:15:11.057Z,28.35
2022-12-18T04:17:39.432Z,24.80
2022-12-18T04:20:07.505Z,24.67
2022-12-18T04:22:38.535Z,24.70
2022-12-18T04:25:06.472Z,24.92
2022-12-18T04:27:39.317Z,33.35
2022-12-18T04:30:07.828Z,24.33
2022-12-18T04:32:36.272Z,26.23
2022-12-18T04:35:05.240Z,25.35
2022-12-18T04:37:34.033Z,26.65
2022-12-18T04:40:01.960Z,22.02
2022-12-18T04:42:38.648Z,27.00
2022-12-18T04:45:06.944Z,31.08
2022-12-18T04:47:34.736Z,27.75
2022-12-18T04:50:04.376Z,25.35
2022-12-18T04:52:32.165Z,26.77
2022-12-18T04:55:00.018Z,28.30
2022-12-18T04:57:27.857Z,26.23
2022-12-18T04:59:55.693Z,31.80
2022-12-18T05:02:23.616Z,30.90
2022-12-18T05:04:51.606Z,36.70
2022-12-18T05:07:19.376Z,32.97
2022-12-18T05:09:47.231Z,42.25
2022-12-18T05:12:15.016Z,35.78
2022-12-18T05:14:42.853Z,35.03
2022-12-18T05:17:10.708Z,35.40
2022-12-18T05:19:39.773Z,36.63
2022-12-18T05:22:07.560Z,39.08
2022-12-18T05:24:35.560Z,44.42
2022-12-18T05:27:03.571Z,31.75
2022-12-18T05:29:31.448Z,42.58
2022-12-18T05:31:59.256Z,38.53
2022-12-18T05:34:27.132Z,45.08
2022-12-18T05:36:54.895Z,43.17
2022-12-18T05:39:22.743Z,45.13
2022-12-18T05:41:50.555Z,36.22
2022-12-18T05:44:18.368Z,43.40
2022-12-18T05:46:46.356Z,39.92
2022-12-18T05:49:14.225Z,44.08
2022-12-18T05:51:42.108Z,38.30
2022-12-18T05:54:10.656Z,42.17
2022-12-18T05:56:38.451Z,39.67
2022-12-18T05:59:06.288Z,36.85
2022-12-18T06:01:34.105Z,35.45
2022-12-18T06:04:02.118Z,37.10
2022-12-18T06:06:30.586Z,38.25
2022-12-18T06:08:58.556Z,33.65
2022-12-18T06:11:27.795Z,43.95
2022-12-18T06:13:59.061Z,35.08
2022-12-18T06:16:27.676Z,48.30
2022-12-18T06:18:58.112Z,33.97
2022-12-18T06:21:26.156Z,41.53
2022-12-18T06:23:53.959Z,43.75
2022-12-18T06:26:27.826Z,31.75
2022-12-18T06:28:56.083Z,45.05
2022-12-18T06:31:23.947Z,47.47
2022-12-18T06:33:52.100Z,43.65
2022-12-18T06:36:20.765Z,40.17
2022-12-18T06:38:48.828Z,43.15
2022-12-18T06:41:22.011Z,43.88
2022-12-18T06:43:50.079Z,42.92
2022-12-18T06:46:17.959Z,43.83
2022-12-18T06:48:49.848Z,41.65
2022-12-18T06:51:22.188Z,42.05
2022-12-18T06:53:50.782Z,47.03
2022-12-18T06:56:19.143Z,43.78
2022-12-18T06:58:47.064Z,46.05
2022-12-18T07:01:15.356Z,43.60
2022-12-18T07:03:44.531Z,44.85
2022-12-18T07:06:16.979Z,44.58
2022-12-18T07:08:45.501Z,47.00
2022-12-18T07:11:13.486Z,52.03
2022-12-18T07:13:41.654Z,50.63
2022-12-18T07:16:23.958Z,43.80
2022-12-18T07:18:53.438Z,45.05
2022-12-18T07:21:21.639Z,45.10
2022-12-18T07:23:49.733Z,47.83
2022-12-18T07:26:18.679Z,41.33
2022-12-18T07:28:46.529Z,50.17
2022-12-18T07:31:17.180Z,50.30
2022-12-18T07:33:45.656Z,44.28
2022-12-18T07:36:13.712Z,52.85
2022-12-18T07:38:41.814Z,47.63
2022-12-18T07:41:14.341Z,45.17
2022-12-18T07:43:43.223Z,43.53
2022-12-18T07:46:12.420Z,48.78
2022-12-18T07:48:46.300Z,42.35
2022-12-18T07:51:18.737Z,44.28
2022-12-18T07:53:46.793Z,48.30
2022-12-18T07:56:26.977Z,46.88
2022-12-18T07:58:56.352Z,46.30
2022-12-18T08:01:24.407Z,49.08
2022-12-18T08:03:52.737Z,51.70
2022-12-18T08:06:22.397Z,46.88
2022-12-18T08:08:55.937Z,49.95
2022-12-18T08:11:25.363Z,51.63
2022-12-18T08:13:53.623Z,52.60
2022-12-18T08:16:21.683Z,49.63
2022-12-18T08:18:50.466Z,49.70
2022-12-18T08:21:24.101Z,43.60
2022-12-18T08:23:52.882Z,45.08
2022-12-18T08:26:21.323Z,46.95
2022-12-18T08:28:50.891Z,38.92
2022-12-18T08:31:19.924Z,49.72
2022-12-18T08:33:53.217Z,46.63
2022-12-18T08:36:22.307Z,48.22
2022-12-18T08:38:50.289Z,47.28
2022-12-18T08:41:19.394Z,55.97
2022-12-18T08:44:06.304Z,49.65
2022-12-18T08:46:38.532Z,52.53
2022-12-18T08:49:07.974Z,44.90
2022-12-18T08:51:36.664Z,51.40
2022-12-18T08:54:05.148Z,56.33
2022-12-18T08:56:35.160Z,54.90
2022-12-18T08:59:03.636Z,50.55
2022-12-18T09:01:31.918Z,56.78
2022-12-18T09:04:00.044Z,46.25
2022-12-18T09:06:28.004Z,56.47
2022-12-18T09:08:55.868Z,50.72
2022-12-18T09:11:25.456Z,53.13
2022-12-18T09:13:53.741Z,44.97
2022-12-18T09:16:24.978Z,48.13
2022-12-18T09:19:00.324Z,42.13
2022-12-18T09:21:29.455Z,53.25
2022-12-18T09:23:57.381Z,48.25
2022-12-18T09:26:26.139Z,49.28
2022-12-18T09:28:54.403Z,55.22
2022-12-18T09:31:23.309Z,43.65
2022-12-18T09:33:51.205Z,48.05
2022-12-18T09:36:19.447Z,37.80
2022-12-18T09:38:47.439Z,41.85
2022-12-18T09:41:54.317Z,43.13
2022-12-18T09:44:27.355Z,40.72
2022-12-18T09:47:00.274Z,41.10
2022-12-18T09:49:31.517Z,41.25
2022-12-18T09:52:09.739Z,33.75
2022-12-18T09:54:44.710Z,36.33
2022-12-18T09:57:15.193Z,34.92
2022-12-18T09:59:45.661Z,33.63
2022-12-18T10:02:25.328Z,32.55
2022-12-18T10:05:06.423Z,38.40
2022-12-18T10:07:43.119Z,37.13
2022-12-18T10:10:28.528Z,38.33
2022-12-18T10:13:06.804Z,41.58
2022-12-18T10:15:37.990Z,43.30
2022-12-18T10:18:05.848Z,38.85
2022-12-18T10:20:37.008Z,34.38
2022-12-18T10:23:17.509Z,39.65
2022-12-18T10:25:51.376Z,41.30
2022-12-18T10:28:20.693Z,40.70
2022-12-18T10:30:48.698Z,36.72
2022-12-18T10:33:19.120Z,36.75
2022-12-18T10:35:47.368Z,33.40
2022-12-18T10:38:18.090Z,36.70
2022-12-18T10:41:05.823Z,30.33
2022-12-18T10:43:34.968Z,32.75
2022-12-18T10:46:02.787Z,29.25
2022-12-18T10:48:31.788Z,29.92
2022-12-18T10:51:15.074Z,32.42
2022-12-18T10:53:44.031Z,26.88
2022-12-18T10:56:12.515Z,42.45
2022-12-18T10:58:41.464Z,29.50
2022-12-18T11:01:22.830Z,31.63
2022-12-18T11:04:01.835Z,30.38
2022-12-18T11:06:30.873Z,26.63
2022-12-18T11:09:12.270Z,31.40
2022-12-18T11:11:42.754Z,41.33
2022-12-18T11:14:26.978Z,33.75
2022-12-18T11:17:24.499Z,31.10
2022-12-18T11:19:45.443Z,24.75
2022-12-18T11:22:21.910Z,28.40
2022-12-18T11:25:22.812Z,29.20
2022-12-18T11:27:49.070Z,31.10
2022-12-18T11:30:26.118Z,27.88
2022-12-18T11:32:56.856Z,33.38
2022-12-18T11:35:42.836Z,31.73
2022-12-18T11:38:26.619Z,27.63
2022-12-18T11:41:13.156Z,25.40
2022-12-18T11:43:46.167Z,31.23
2022-12-18T11:46:19.658Z,31.90
2022-12-18T11:48:48.127Z,26.83
2022-12-18T11:51:26.232Z,33.55
2022-12-18T11:53:55.226Z,27.98
2022-12-18T11:56:34.530Z,25.17
2022-12-18T11:59:02.373Z,22.73
2022-12-18T12:01:52.877Z,33.15
2022-12-18T12:04:35.471Z,28.90
2022-12-18T12:07:33.332Z,30.65
2022-12-18T12:10:07.366Z,30.27
2022-12-18T12:13:01.465Z,35.30
2022-12-18T12:16:06.571Z,33.80
2022-12-18T12:18:37.366Z,30.90
2022-12-18T12:21:13.414Z,29.20
2022-12-18T12:23:41.454Z,30.10
2022-12-18T12:26:12.715Z,28.38
2022-12-18T12:29:01.560Z,31.88
2022-12-18T12:31:57.054Z,33.75
2022-12-18T12:34:27.656Z,29.52
2022-12-18T12:37:20.889Z,31.95
2022-12-18T12:39:49.384Z,31.25
2022-12-18T12:43:04.592Z,35.42
2022-12-18T12:45:43.109Z,29.23
2022-12-18T12:48:49.161Z,33.05
2022-12-18T12:51:22.817Z,33.95
2022-12-18T12:53:51.222Z,34.92
2022-12-18T12:56:21.108Z,30.15
2022-12-18T12:59:00.593Z,30.98
2022-12-18T13:01:32.588Z,35.15
2022-12-18T13:04:00.857Z,33.35
2022-12-18T13:06:29.222Z,40.05
2022-12-18T13:09:01.936Z,38.00
2022-12-18T13:11:53.676Z,35.75
2022-12-18T13:14:31.564Z,34.13
2022-12-18T13:17:38.295Z,35.85
2022-12-18T13:20:06.244Z,41.42
2022-12-18T13:22:40.106Z,41.50
2022-12-18T13:25:26.936Z,33.88
2022-12-18T13:28:07.218Z,37.55
2022-12-18T13:30:35.602Z,37.75
2022-12-18T13:33:15.519Z,34.97
2022-12-18T13:35:47.345Z,43.28
2022-12-18T13:38:21.571Z,38.75
2022-12-18T13:40:49.582Z,32.30
2022-12-18T13:43:29.559Z,39.28
2022-12-18T13:45:57.362Z,42.35
2022-12-18T13:48:26.274Z,29.73
2022-12-18T13:50:59.762Z,41.08
2022-12-18T13:53:43.218Z,36.20
2022-12-18T13:56:16.887Z,32.95
2022-12-18T13:58:44.967Z,43.92
2022-12-18T14:01:25.928Z,35.60
2022-12-18T14:04:18.751Z,42.67
2022-12-18T14:06:47.480Z,34.50
2022-12-18T14:09:21.381Z,40.90
2022-12-18T14:11:52.840Z,43.15
2022-12-18T14:14:21.142Z,40.05
2022-12-18T14:16:49.176Z,32.08
2022-12-18T14:19:18.628Z,39.72
2022-12-18T14:21:47.509Z,42.03
2022-12-18T14:24:18.273Z,36.35
2022-12-18T14:26:50.329Z,42.88
2022-12-18T14:29:23.626Z,44.08
2022-12-18T14:32:18.924Z,41.55
2022-12-18T14:34:51.346Z,42.88
2022-12-18T14:37:23.451Z,45.75
2022-12-18T14:39:55.617Z,39.85
2022-12-18T14:42:23.511Z,42.05
2022-12-18T14:45:13.020Z,47.25
2022-12-18T14:47:39.215Z,49.25
2022-12-18T14:50:14.162Z,38.60
2022-12-18T14:52:42.071Z,35.47
2022-12-18T14:55:16.804Z,31.58
2022-12-18T14:57:45.514Z,34.47
2022-12-18T15:00:19.553Z,31.70
2022-12-18T15:02:49.423Z,33.75
2022-12-18T15:05:26.364Z,27.33
2022-12-18T15:07:55.273Z,41.13
2022-12-18T15:10:23.388Z,38.10
2022-12-18T15:12:57.411Z,40.67
2022-12-18T15:15:34.870Z,41.50
2022-12-18T15:18:04.854Z,34.28
2022-12-18T15:20:33.503Z,40.58
2022-12-18T15:23:01.409Z,43.00
2022-12-18T15:25:38.298Z,42.60
2022-12-18T15:28:17.555Z,41.03
2022-12-18T15:31:00.038Z,37.75
2022-12-18T15:33:31.435Z,36.95
2022-12-18T15:36:00.721Z,37.38
2022-12-18T15:38:28.865Z,36.78
2022-12-18T15:40:57.389Z,36.80
2022-12-18T15:43:34.976Z,35.53
2022-12-18T15:46:04.598Z,37.05
2022-12-18T15:48:35.211Z,35.00
2022-12-18T15:51:03.309Z,33.05
2022-12-18T15:53:32.900Z,27.05
2022-12-18T15:56:19.771Z,31.50
2022-12-18T15:58:48.128Z,30.77
2022-12-18T16:01:19.910Z,30.48
2022-12-18T16:03:48.116Z,28.90
2022-12-18T16:06:16.006Z,29.92
2022-12-18T16:08:43.845Z,30.50
2022-12-18T16:11:44.441Z,28.98
2022-12-18T16:14:18.302Z,27.90
2022-12-18T16:16:47.588Z,28.85
2022-12-18T16:19:15.530Z,23.38
2022-12-18T16:21:43.763Z,25.90
2022-12-18T16:24:24.975Z,31.05
2022-12-18T16:26:53.475Z,23.63
2022-12-18T16:29:25.755Z,28.13
2022-12-18T16:31:53.705Z,28.73
2022-12-18T16:34:28.695Z,21.98
2022-12-18T16:37:06.900Z,25.98
2022-12-18T16:39:35.542Z,20.92
2022-12-18T16:42:05.906Z,21.42
2022-12-18T16:44:34.840Z,22.52
2022-12-18T16:47:04.413Z,20.98
2022-12-18T16:49:32.701Z,19.00
2022-12-18T16:52:00.549Z,19.80
2022-12-18T16:54:30.555Z,18.77
2022-12-18T16:56:58.613Z,19.35
2022-12-18T16:59:26.989Z,17.45
2022-12-18T17:01:57.482Z,19.52
2022-12-18T17:04:25.522Z,18.67
2022-12-18T17:06:53.938Z,15.35
2022-12-18T17:09:25.473Z,16.85
2022-12-18T17:11:53.975Z,15.63
2022-12-18T17:14:23.590Z,18.02
2022-12-18T17:17:19.159Z,17.65
2022-12-18T17:19:40.087Z,17.00
2022-12-18T17:22:08.567Z,20.05
2022-12-18T17:24:36.676Z,18.75
2022-12-18T17:27:05.138Z,21.50
2022-12-18T17:29:33.016Z,17.38
2022-12-18T17:32:00.795Z,17.13
2022-12-18T17:34:30.056Z,19.80
2022-12-18T17:36:58.544Z,17.95
2022-12-18T17:39:27.009Z,15.80
2022-12-18T17:41:55.056Z,18.85
2022-12-18T17:44:23.228Z,17.30
2022-12-18T17:46:51.109Z,19.75
2022-12-18T17:49:19.110Z,18.63
2022-12-18T17:51:48.543Z,16.42
2022-12-18T17:54:16.500Z,16.92
2022-12-18T17:56:44.328Z,20.33
2022-12-18T17:59:12.784Z,15.93
2022-12-18T18:01:44.375Z,17.38
2022-12-18T18:04:13.658Z,18.02
2022-12-18T18:06:41.791Z,17.17
2022-12-18T18:09:16.641Z,14.82
2022-12-18T18:12:04.592Z,17.33
2022-12-18T18:14:33.148Z,18.77
2022-12-18T18:17:04.165Z,17.13
2022-12-18T18:19:34.175Z,23.15
2022-12-18T18:22:30.949Z,22.55
2022-12-18T18:24:50.076Z,22.17
2022-12-18T18:27:17.889Z,21.80
2022-12-18T18:29:45.771Z,21.60
2022-12-18T18:32:13.595Z,20.25
2022-12-18T18:34:41.884Z,21.67
2022-12-18T18:37:10.359Z,20.55
2022-12-18T18:39:38.387Z,20.70
2022-12-18T18:42:06.396Z,18.85
2022-12-18T18:44:35.256Z,21.80
2022-12-18T18:47:05.633Z,20.70
2022-12-18T18:49:37.960Z,21.63
2022-12-18T18:52:07.628Z,21.75
2022-12-18T18:54:35.637Z,21.98
2022-12-18T18:57:20.105Z,23.90
2022-12-18T18:59:48.771Z,24.63
2022-12-18T19:02:18.012Z,23.27
2022-12-18T19:04:46.999Z,22.17
2022-12-18T19:07:18.204Z,21.10
2022-12-18T19:09:57.902Z,20.70
2022-12-18T19:12:48.696Z,23.77
2022-12-18T19:15:16.556Z,22.98
2022-12-18T19:17:44.826Z,25.55
2022-12-18T19:20:15.462Z,27.90
2022-12-18T19:22:43.377Z,23.52
2022-12-18T19:25:13.933Z,25.80
2022-12-18T19:27:41.959Z,21.67
2022-12-18T19:30:10.726Z,24.08
2022-12-18T19:32:38.773Z,22.55
2022-12-18T19:35:07.573Z,24.48
2022-12-18T19:37:36.168Z,24.33
2022-12-18T19:40:06.067Z,25.10
2022-12-18T19:42:40.521Z,28.55
2022-12-18T19:45:08.600Z,25.60
2022-12-18T19:47:36.510Z,25.55
2022-12-18T19:50:04.233Z,26.50
2022-12-18T19:52:32.244Z,26.67
2022-12-18T19:55:00.033Z,25.48
2022-12-18T19:57:27.971Z,26.98
2022-12-18T19:59:55.827Z,28.30
2022-12-18T20:02:23.842Z,25.40
2022-12-18T20:04:52.801Z,23.75
2022-12-18T20:07:20.739Z,22.15
2022-12-18T20:09:49.370Z,19.95
2022-12-18T20:12:20.172Z,23.52
2022-12-18T20:14:48.150Z,17.33
2022-12-18T20:17:16.151Z,22.08
2022-12-18T20:19:44.276Z,20.00
2022-12-18T20:22:12.511Z,18.60
2022-12-18T20:24:40.516Z,17.55
2022-12-18T20:27:14.033Z,18.58
2022-12-18T20:29:43.634Z,16.42
2022-12-18T20:32:11.537Z,15.43
2022-12-18T20:34:39.516Z,16.58
2022-12-18T20:37:07.575Z,16.92
2022-12-18T20:39:37.389Z,15.80
2022-12-18T20:42:06.234Z,16.38
2022-12-18T20:44:34.254Z,14.50
2022-12-18T20:47:04.990Z,16.17
2022-12-18T20:49:37.565Z,15.93
2022-12-18T20:52:07.491Z,15.77
2022-12-18T20:54:35.372Z,15.57
2022-12-18T20:57:03.284Z,14.32
2022-12-18T20:59:31.345Z,13.77
2022-12-18T21:01:59.286Z,15.18
2022-12-18T21:04:27.313Z,15.40
2022-12-18T21:06:59.267Z,16.05
2022-12-18T21:09:34.503Z,13.90
2022-12-18T21:12:25.933Z,15.43
2022-12-18T21:14:53.911Z,16.10
2022-12-18T21:17:21.708Z,14.88
2022-12-18T21:19:49.588Z,14.52
2022-12-18T21:22:17.654Z,15.95
2022-12-18T21:24:45.394Z,15.88
2022-12-18T21:27:14.253Z,14.60
2022-12-18T21:29:47.042Z,16.00
2022-12-18T21:32:15.443Z,17.58
2022-12-18T21:34:47.767Z,16.23
2022-12-18T21:37:16.168Z,12.43
2022-12-18T21:39:44.079Z,13.63
2022-12-18T21:42:31.574Z,16.20
2022-12-18T21:44:59.719Z,18.25
2022-12-18T21:47:27.597Z,16.10
2022-12-18T21:49:55.580Z,18.85
2022-12-18T21:52:32.108Z,15.70
2022-12-18T21:55:09.026Z,14.85
2022-12-18T21:57:39.508Z,16.58
2022-12-18T22:00:08.446Z,16.55
2022-12-18T22:02:42.415Z,16.35
2022-12-18T22:05:10.427Z,15.13
2022-12-18T22:07:39.163Z,19.13
2022-12-18T22:10:07.348Z,17.17
2022-12-18T22:12:35.621Z,15.98
2022-12-18T22:15:05.936Z,17.90
2022-12-18T22:17:34.018Z,17.67
2022-12-18T22:20:01.940Z,16.17
2022-12-18T22:22:29.762Z,17.23
2022-12-18T22:24:57.623Z,14.48
2022-12-18T22:27:25.437Z,16.00
2022-12-18T22:30:05.669Z,14.52
2022-12-18T22:32:34.991Z,15.93
2022-12-18T22:35:09.188Z,16.20
2022-12-18T22:37:40.895Z,16.73
2022-12-18T22:40:11.302Z,17.67
2022-12-18T22:42:40.892Z,17.63
2022-12-18T22:45:08.949Z,16.40
2022-12-18T22:47:36.791Z,16.33
2022-12-18T22:50:04.899Z,15.55
2022-12-18T22:52:32.735Z,19.42
2022-12-18T22:55:00.571Z,15.75
2022-12-18T22:57:29.152Z,15.27
2022-12-18T22:59:57.017Z,16.33
2022-12-18T23:02:25.249Z,17.98
2022-12-18T23:04:53.194Z,19.35
2022-12-18T23:07:21.260Z,16.45
2022-12-18T23:09:50.714Z,17.63
2022-12-18T23:12:26.471Z,20.02
2022-12-18T23:14:54.453Z,16.25
2022-12-18T23:17:22.380Z,18.08
2022-12-18T23:19:49.802Z,16.88
2022-12-18T23:22:18.069Z,17.48
2022-12-18T23:24:45.877Z,19.98
2022-12-18T23:27:13.740Z,19.15
2022-12-18T23:29:41.572Z,17.55
2022-12-18T23:32:09.672Z,20.13
2022-12-18T23:34:37.538Z,17.92
2022-12-18T23:37:05.612Z,15.60
2022-12-18T23:39:33.411Z,18.63
2022-12-18T23:42:01.695Z,16.35
2022-12-18T23:44:29.800Z,14.68
2022-12-18T23:46:57.793Z,16.42
2022-12-18T23:49:25.636Z,14.30
2022-12-18T23:51:55.131Z,18.25
2022-12-18T23:54:32.795Z,18.63
2022-12-18T23:57:01.880Z,18.75
2022-12-18T23:59:29.775Z,18.58
